Time;durP1;ratioP1;P1;durP2;ratioP2;P2;SDS_P1;SDS_P2;PMS_P1;PMS_P2;Temp;Humidity;BMP_temperature;BMP_pressure;BME280_temperature;BME280_humidity;BME280_pressure;Samples;Min_cycle;Max_cycle;Signal;HPM_P1;HPM_P2
2022/03/04 00:02:12;;;;;;;15.30;13.77;;;3.80;54.80;;;;;;5002591;28;20225;-92
2022/03/04 00:04:38;;;;;;;16.13;12.97;;;3.70;54.80;;;;;;5013567;28;20247;-92
2022/03/04 00:07:05;;;;;;;14.10;12.50;;;3.60;54.20;;;;;;4997435;28;20194;-92
2022/03/04 00:09:31;;;;;;;14.37;12.70;;;3.70;56.20;;;;;;5046377;28;20268;-92
2022/03/04 00:11:57;;;;;;;15.77;13.30;;;3.80;54.60;;;;;;5041810;28;20197;-92
2022/03/04 00:14:24;;;;;;;14.83;12.97;;;3.80;54.30;;;;;;5005340;28;20208;-92
2022/03/04 00:16:51;;;;;;;13.90;12.40;;;3.70;55.30;;;;;;5013428;28;20197;-92
2022/03/04 00:19:18;;;;;;;15.83;14.23;;;3.80;53.50;;;;;;5008004;28;20202;-91
2022/03/04 00:21:48;;;;;;;15.43;13.33;;;3.70;54.50;;;;;;5012571;28;20679;-92
2022/03/04 00:24:16;;;;;;;15.70;12.63;;;3.70;54.80;;;;;;5026950;28;20204;-92
2022/03/04 00:26:42;;;;;;;13.53;11.97;;;3.70;55.30;;;;;;5029299;28;20209;-92
2022/03/04 00:29:09;;;;;;;14.77;13.17;;;3.70;56.30;;;;;;5021314;28;20241;-91
2022/03/04 00:31:36;;;;;;;14.43;12.40;;;3.60;56.20;;;;;;5029934;28;20232;-92
2022/03/04 00:34:06;;;;;;;14.37;12.40;;;3.70;57.10;;;;;;5018828;28;20212;-92
2022/03/04 00:36:38;;;;;;;14.03;12.23;;;3.60;54.90;;;;;;5021565;28;20208;-91
2022/03/04 00:39:10;;;;;;;15.10;13.40;;;3.60;57.10;;;;;;5033705;28;20218;-92
2022/03/04 00:41:36;;;;;;;13.57;12.17;;;3.70;56.90;;;;;;5032161;28;20182;-92
2022/03/04 00:44:02;;;;;;;15.90;13.23;;;3.80;57.60;;;;;;5013573;28;20182;-91
2022/03/04 00:46:28;;;;;;;13.53;11.57;;;3.80;56.50;;;;;;5009935;28;20205;-92
2022/03/04 00:48:54;;;;;;;13.80;12.17;;;3.90;57.10;;;;;;5023625;28;20206;-92
2022/03/04 00:51:20;;;;;;;15.33;13.13;;;3.90;57.00;;;;;;5005368;28;20216;-92
2022/03/04 00:53:45;;;;;;;14.37;12.67;;;3.90;57.70;;;;;;4990625;28;20206;-92
2022/03/04 00:56:12;;;;;;;13.97;12.47;;;3.80;57.30;;;;;;5001002;28;20199;-93
2022/03/04 00:58:39;;;;;;;14.00;12.50;;;3.80;56.60;;;;;;4996838;28;20202;-92
2022/03/04 01:01:06;;;;;;;13.43;11.83;;;3.90;57.30;;;;;;5039422;28;20182;-92
2022/03/04 01:03:32;;;;;;;13.23;11.83;;;3.80;57.20;;;;;;5022515;28;20206;-93
2022/03/04 01:06:00;;;;;;;15.93;13.07;;;3.90;57.60;;;;;;5015576;28;20213;-92
2022/03/04 01:08:25;;;;;;;13.33;11.53;;;3.90;57.10;;;;;;5016398;28;20288;-92
2022/03/04 01:10:51;;;;;;;12.70;11.27;;;4.00;57.00;;;;;;5015694;28;20202;-92
2022/03/04 01:13:17;;;;;;;14.20;12.73;;;4.00;57.00;;;;;;5022912;28;20186;-92
2022/03/04 01:15:44;;;;;;;14.10;12.23;;;4.00;55.70;;;;;;4991393;28;20189;-92
2022/03/04 01:18:11;;;;;;;14.77;13.13;;;3.90;55.90;;;;;;5025160;28;20280;-92
2022/03/04 01:20:37;;;;;;;13.50;11.63;;;3.80;56.30;;;;;;5025586;28;20205;-92
2022/03/04 01:23:03;;;;;;;13.83;11.73;;;3.60;56.80;;;;;;5016382;28;20235;-92
2022/03/04 01:25:28;;;;;;;13.63;11.57;;;3.50;57.10;;;;;;5038960;28;20209;-92
2022/03/04 01:27:54;;;;;;;13.27;12.00;;;3.40;58.10;;;;;;5012958;28;20206;-92
2022/03/04 01:30:20;;;;;;;17.37;12.97;;;3.30;58.50;;;;;;5012999;28;20205;-91
2022/03/04 01:32:46;;;;;;;13.60;12.20;;;3.30;59.10;;;;;;5010308;28;20189;-92
2022/03/04 01:35:12;;;;;;;15.43;12.40;;;3.20;59.90;;;;;;5024273;28;20651;-92
2022/03/04 01:37:39;;;;;;;14.07;12.57;;;3.30;59.70;;;;;;5005902;28;20200;-92
2022/03/04 01:40:07;;;;;;;13.50;12.10;;;3.30;59.10;;;;;;5001093;28;20178;-92
2022/03/04 01:42:33;;;;;;;17.20;13.57;;;3.30;59.00;;;;;;5009045;28;20186;-93
2022/03/04 01:44:59;;;;;;;13.50;12.13;;;3.40;59.30;;;;;;5028675;28;20202;-92
2022/03/04 01:47:25;;;;;;;14.43;12.00;;;3.50;58.70;;;;;;5023715;28;20190;-92
2022/03/04 01:49:52;;;;;;;14.27;11.33;;;3.50;58.60;;;;;;5007509;28;20209;-92
2022/03/04 01:52:18;;;;;;;13.80;12.30;;;3.60;58.90;;;;;;5024324;28;20240;-92
2022/03/04 01:54:44;;;;;;;14.27;12.27;;;3.60;57.90;;;;;;5024622;28;20192;-92
2022/03/04 01:57:10;;;;;;;14.57;12.67;;;3.40;56.40;;;;;;4991592;28;20190;-92
2022/03/04 01:59:36;;;;;;;16.47;13.27;;;3.30;57.80;;;;;;5008265;28;20206;-92
2022/03/04 02:02:02;;;;;;;13.13;11.73;;;3.30;57.70;;;;;;4992425;28;20202;-92
2022/03/04 02:04:28;;;;;;;14.53;12.30;;;3.20;58.80;;;;;;5018186;28;20188;-92
2022/03/04 02:06:54;;;;;;;14.00;12.50;;;3.30;58.10;;;;;;5016375;28;20189;-92
2022/03/04 02:09:20;;;;;;;14.03;12.53;;;3.20;57.90;;;;;;5010631;28;20296;-92
2022/03/04 02:11:48;;;;;;;14.73;12.50;;;3.20;58.80;;;;;;5019802;28;20225;-93
2022/03/04 02:14:15;;;;;;;13.57;12.03;;;3.20;58.60;;;;;;5014851;28;20233;-91
2022/03/04 02:16:46;;;;;;;15.33;12.63;;;3.20;58.80;;;;;;5016332;28;20237;-91
2022/03/04 02:19:13;;;;;;;16.67;13.27;;;3.20;58.00;;;;;;5007215;28;20225;-91
2022/03/04 02:21:52;;;;;;;16.30;12.73;;;3.10;58.50;;;;;;5011540;28;20220;-90
2022/03/04 02:24:19;;;;;;;15.37;13.40;;;3.10;58.30;;;;;;4991920;28;20190;-90
2022/03/04 02:26:45;;;;;;;13.80;12.37;;;2.90;58.30;;;;;;5021767;28;20190;-90
2022/03/04 02:29:12;;;;;;;17.77;14.03;;;2.80;59.70;;;;;;5003873;28;20228;-90
2022/03/04 02:31:38;;;;;;;18.47;14.20;;;2.80;59.00;;;;;;5021880;28;20205;-90
2022/03/04 02:34:04;;;;;;;15.97;13.47;;;2.70;59.40;;;;;;5009070;28;20184;-90
2022/03/04 02:36:30;;;;;;;17.03;12.87;;;2.60;59.40;;;;;;5013647;28;20209;-90
2022/03/04 02:38:56;;;;;;;17.13;13.73;;;2.40;60.70;;;;;;5020958;28;20217;-90
2022/03/04 02:41:21;;;;;;;16.20;12.83;;;2.30;61.30;;;;;;5006955;28;20208;-90
2022/03/04 02:43:47;;;;;;;15.03;13.23;;;2.20;61.30;;;;;;5004773;28;20197;-90
2022/03/04 02:46:13;;;;;;;15.87;13.73;;;2.10;62.10;;;;;;5002028;28;20190;-90
2022/03/04 02:48:40;;;;;;;15.90;13.40;;;2.20;61.90;;;;;;5006592;28;20225;-90
2022/03/04 02:51:06;;;;;;;15.33;12.67;;;2.10;62.20;;;;;;5019316;28;20209;-90
2022/03/04 02:53:32;;;;;;;15.77;13.17;;;2.00;63.00;;;;;;4988497;28;20189;-91
2022/03/04 02:55:57;;;;;;;16.43;13.30;;;2.00;62.70;;;;;;5023639;28;20178;-91
2022/03/04 02:58:23;;;;;;;16.43;13.70;;;2.00;63.20;;;;;;5003138;28;20241;-91
2022/03/04 03:00:49;;;;;;;14.40;12.53;;;1.80;63.40;;;;;;5004421;28;20193;-91
2022/03/04 03:03:15;;;;;;;17.07;13.77;;;1.80;63.90;;;;;;5007642;28;20190;-91
2022/03/04 03:05:41;;;;;;;15.50;13.30;;;1.80;63.70;;;;;;4994439;28;20217;-91
2022/03/04 03:08:07;;;;;;;14.93;12.83;;;1.80;64.00;;;;;;5021716;28;20702;-91
2022/03/04 03:10:33;;;;;;;15.87;13.20;;;1.70;64.50;;;;;;5004477;28;20225;-90
2022/03/04 03:13:00;;;;;;;16.73;12.67;;;1.70;64.30;;;;;;5005699;28;20189;-90
2022/03/04 03:15:26;;;;;;;17.73;13.23;;;1.60;64.40;;;;;;4989964;28;20691;-91
2022/03/04 03:17:52;;;;;;;16.33;14.07;;;1.50;65.10;;;;;;5020580;28;20224;-90
2022/03/04 03:20:18;;;;;;;17.33;14.33;;;1.60;65.00;;;;;;5006663;28;20193;-90
2022/03/04 03:22:43;;;;;;;18.40;14.00;;;1.60;65.60;;;;;;5011358;28;20225;-91
2022/03/04 03:25:09;;;;;;;17.97;14.10;;;1.50;65.50;;;;;;5002116;28;20669;-90
2022/03/04 03:27:35;;;;;;;18.67;13.67;;;1.40;66.10;;;;;;5000635;28;20257;-90
2022/03/04 03:30:03;;;;;;;15.87;13.27;;;1.40;66.40;;;;;;5021361;28;20188;-90
2022/03/04 03:32:29;;;;;;;15.07;12.87;;;1.30;66.50;;;;;;5006561;28;20204;-91
2022/03/04 03:34:56;;;;;;;18.77;14.03;;;1.40;67.10;;;;;;5004042;28;20213;-91
2022/03/04 03:37:21;;;;;;;16.10;12.80;;;1.40;66.10;;;;;;5004541;28;20235;-90
2022/03/04 03:39:47;;;;;;;15.80;14.07;;;1.50;66.40;;;;;;5021730;28;20243;-91
2022/03/04 03:42:13;;;;;;;16.50;13.10;;;1.40;66.20;;;;;;5019252;28;20686;-91
2022/03/04 03:44:38;;;;;;;17.10;13.60;;;1.30;67.10;;;;;;5022156;28;20189;-91
2022/03/04 03:47:04;;;;;;;15.90;13.83;;;1.40;67.10;;;;;;5008862;28;20299;-90
2022/03/04 03:49:30;;;;;;;18.53;14.63;;;1.50;66.60;;;;;;5018191;28;20252;-91
2022/03/04 03:51:56;;;;;;;16.47;13.77;;;1.60;66.00;;;;;;5006403;28;20209;-90
2022/03/04 03:54:21;;;;;;;17.13;13.90;;;1.40;66.60;;;;;;5029417;28;20190;-90
2022/03/04 03:56:47;;;;;;;18.50;14.40;;;1.40;67.00;;;;;;5013990;28;20236;-90
2022/03/04 03:59:13;;;;;;;15.50;13.13;;;1.40;66.80;;;;;;5021300;28;20217;-90
2022/03/04 04:01:39;;;;;;;16.23;13.67;;;1.50;66.80;;;;;;4986462;28;20226;-91
2022/03/04 04:04:08;;;;;;;19.27;14.53;;;1.50;67.20;;;;;;5006641;28;20215;-91
2022/03/04 04:06:34;;;;;;;15.40;13.30;;;1.50;66.40;;;;;;5005194;28;20189;-91
2022/03/04 04:09:02;;;;;;;22.10;16.07;;;1.50;66.80;;;;;;5003685;28;20213;-90
2022/03/04 04:11:28;;;;;;;18.93;14.67;;;1.50;66.50;;;;;;5003416;28;20221;-91
2022/03/04 04:13:54;;;;;;;16.80;14.47;;;1.40;66.30;;;;;;5021925;28;20284;-91
2022/03/04 04:16:20;;;;;;;17.80;14.67;;;1.40;66.80;;;;;;4989358;28;20181;-91
2022/03/04 04:18:46;;;;;;;18.90;15.10;;;1.30;67.30;;;;;;4988707;28;20194;-91
2022/03/04 04:21:11;;;;;;;19.50;15.10;;;1.30;67.60;;;;;;5001050;28;20189;-91
2022/03/04 04:23:37;;;;;;;18.37;14.10;;;1.20;67.70;;;;;;5013510;28;20174;-91
2022/03/04 04:26:05;;;;;;;19.37;15.03;;;1.20;67.80;;;;;;5014068;28;20193;-91
2022/03/04 04:28:31;;;;;;;18.80;14.67;;;1.20;68.20;;;;;;5006840;28;20681;-90
2022/03/04 04:30:57;;;;;;;18.63;15.03;;;1.30;68.10;;;;;;5009248;28;20224;-90
2022/03/04 04:33:22;;;;;;;18.03;14.77;;;1.40;67.50;;;;;;4992840;28;20193;-91
2022/03/04 04:35:48;;;;;;;23.33;15.13;;;1.40;67.10;;;;;;4995851;28;20227;-91
2022/03/04 04:38:14;;;;;;;17.67;14.97;;;1.40;66.70;;;;;;5016333;28;20217;-91
2022/03/04 04:40:40;;;;;;;16.23;13.70;;;1.40;67.20;;;;;;4999225;28;20277;-91
2022/03/04 04:43:06;;;;;;;24.07;15.30;;;1.50;68.50;;;;;;5013511;28;20209;-91
2022/03/04 04:45:32;;;;;;;17.83;14.07;;;1.60;67.10;;;;;;4984159;28;20243;-91
2022/03/04 04:47:57;;;;;;;19.20;14.97;;;1.60;65.90;;;;;;5016328;28;20921;-91
2022/03/04 04:50:23;;;;;;;17.50;14.43;;;1.50;66.50;;;;;;5007400;28;20292;-91
2022/03/04 04:52:49;;;;;;;18.57;14.67;;;1.40;67.40;;;;;;5013367;28;20279;-91
2022/03/04 04:55:14;;;;;;;17.80;14.00;;;1.40;66.80;;;;;;4983639;28;20189;-91
2022/03/04 04:57:40;;;;;;;20.47;15.33;;;1.30;67.60;;;;;;5009666;28;20194;-90
2022/03/04 05:00:06;;;;;;;19.90;15.10;;;1.30;67.30;;;;;;4997449;28;20186;-90
2022/03/04 05:02:32;;;;;;;17.47;13.63;;;1.30;67.40;;;;;;5009478;28;20219;-91
2022/03/04 05:04:59;;;;;;;18.17;14.77;;;1.30;67.30;;;;;;4989456;28;20200;-91
2022/03/04 05:07:25;;;;;;;25.53;20.23;;;1.20;68.00;;;;;;4999461;28;20205;-91
2022/03/04 05:09:51;;;;;;;24.70;19.33;;;1.30;67.60;;;;;;5010142;28;20210;-90
2022/03/04 05:12:17;;;;;;;19.50;15.73;;;1.40;67.50;;;;;;5009554;28;20224;-91
2022/03/04 05:14:42;;;;;;;21.70;16.47;;;1.40;67.70;;;;;;4993527;28;20287;-91
2022/03/04 05:17:08;;;;;;;19.10;15.83;;;1.30;67.10;;;;;;5017419;28;20658;-91
2022/03/04 05:19:34;;;;;;;20.40;15.67;;;1.30;67.20;;;;;;4993518;28;20348;-90
2022/03/04 05:21:59;;;;;;;19.27;15.00;;;1.10;67.60;;;;;;4991459;28;20204;-90
2022/03/04 05:24:25;;;;;;;22.10;16.73;;;1.00;68.10;;;;;;4983546;28;20575;-90
2022/03/04 05:26:51;;;;;;;18.40;14.47;;;1.00;68.90;;;;;;4998102;28;20672;-90
2022/03/04 05:29:16;;;;;;;27.13;16.77;;;1.00;68.70;;;;;;5006820;28;20279;-91
2022/03/04 05:31:43;;;;;;;19.00;15.30;;;1.00;68.70;;;;;;4999640;28;20215;-90
2022/03/04 05:34:10;;;;;;;21.97;16.60;;;1.00;69.70;;;;;;4997933;28;20228;-91
2022/03/04 05:36:40;;;;;;;19.50;16.03;;;0.90;68.90;;;;;;4995752;28;20224;-91
2022/03/04 05:39:07;;;;;;;20.50;15.20;;;0.90;68.90;;;;;;5003170;28;20309;-91
2022/03/04 05:41:32;;;;;;;19.33;15.83;;;1.00;69.20;;;;;;5016461;28;20197;-91
2022/03/04 05:43:59;;;;;;;17.73;14.33;;;1.00;68.70;;;;;;4997032;28;20197;-91
2022/03/04 05:46:25;;;;;;;18.33;15.60;;;1.00;69.70;;;;;;4976674;28;20193;-91
2022/03/04 05:48:51;;;;;;;18.00;14.53;;;1.10;68.40;;;;;;5000539;28;20210;-90
2022/03/04 05:51:17;;;;;;;21.13;15.53;;;1.10;68.80;;;;;;4995348;28;20293;-91
2022/03/04 05:53:43;;;;;;;27.60;16.93;;;1.20;67.50;;;;;;4970465;28;20650;-91
2022/03/04 05:56:10;;;;;;;21.10;15.73;;;1.20;67.70;;;;;;5010851;28;20185;-91
2022/03/04 05:58:37;;;;;;;20.43;15.37;;;1.10;67.50;;;;;;4998308;28;20205;-91
2022/03/04 06:01:06;;;;;;;21.00;15.63;;;1.10;67.30;;;;;;5017159;28;20320;-91
2022/03/04 06:03:32;;;;;;;21.00;15.10;;;1.10;68.10;;;;;;5017188;28;20189;-91
2022/03/04 06:05:58;;;;;;;18.13;14.73;;;1.10;68.30;;;;;;5011984;28;20186;-91
2022/03/04 06:08:24;;;;;;;21.77;16.70;;;1.00;68.00;;;;;;4995242;28;20219;-90
2022/03/04 06:10:50;;;;;;;22.00;16.80;;;1.00;68.40;;;;;;5017636;28;20210;-91
2022/03/04 06:13:16;;;;;;;21.60;16.00;;;0.80;69.20;;;;;;5006906;28;20273;-91
2022/03/04 06:15:42;;;;;;;22.73;16.57;;;0.80;69.80;;;;;;5003570;28;20186;-91
2022/03/04 06:18:08;;;;;;;26.07;18.37;;;0.70;70.60;;;;;;5013128;28;20214;-91
2022/03/04 06:20:33;;;;;;;20.53;16.57;;;0.60;70.90;;;;;;4998288;28;20865;-91
2022/03/04 06:22:59;;;;;;;21.53;16.77;;;0.60;71.80;;;;;;5002116;28;20251;-91
2022/03/04 06:25:25;;;;;;;23.90;16.03;;;0.60;71.70;;;;;;4995115;28;20247;-91
2022/03/04 06:27:59;;;;;;;23.10;17.13;;;0.70;71.60;;;;;;5001137;28;20217;-90
2022/03/04 06:30:26;;;;;;;21.10;16.77;;;0.70;71.00;;;;;;4979806;28;20222;-90
2022/03/04 06:33:30;;;;;;;20.17;16.97;;;0.70;71.30;;;;;;5017097;28;20189;-90
2022/03/04 06:35:39;;;;;;;24.27;17.20;;;0.60;71.50;;;;;;5015055;28;20201;-91
2022/03/04 06:38:05;;;;;;;21.80;18.00;;;0.60;71.80;;;;;;5002269;28;20632;-90
2022/03/04 06:40:31;;;;;;;24.20;18.57;;;0.60;72.10;;;;;;4986663;28;20680;-90
2022/03/04 06:42:56;;;;;;;26.53;19.33;;;0.70;72.20;;;;;;5014973;28;20187;-90
2022/03/04 06:45:22;;;;;;;32.63;22.43;;;0.70;71.90;;;;;;4982795;28;20202;-90
2022/03/04 06:47:48;;;;;;;30.10;23.07;;;0.80;71.10;;;;;;5003341;28;20200;-90
2022/03/04 06:50:14;;;;;;;24.17;18.10;;;0.80;71.20;;;;;;5000578;28;20197;-91
2022/03/04 06:52:40;;;;;;;21.90;17.73;;;0.70;71.80;;;;;;5013331;28;20210;-90
2022/03/04 06:55:06;;;;;;;26.60;17.70;;;0.70;71.50;;;;;;4982005;28;20205;-90
2022/03/04 06:57:32;;;;;;;27.63;19.47;;;0.70;72.20;;;;;;5018664;28;20205;-90
2022/03/04 06:59:58;;;;;;;27.50;18.23;;;0.70;72.10;;;;;;5020322;28;20193;-90
2022/03/04 07:02:23;;;;;;;23.97;18.20;;;0.80;71.50;;;;;;5020396;28;20201;-90
2022/03/04 07:04:49;;;;;;;23.50;17.20;;;0.80;71.70;;;;;;4988543;28;20236;-90
2022/03/04 07:07:16;;;;;;;21.07;16.97;;;0.80;71.30;;;;;;5005597;28;20275;-91
2022/03/04 07:09:41;;;;;;;23.87;17.63;;;0.80;71.20;;;;;;5017383;28;20236;-90
2022/03/04 07:12:07;;;;;;;22.73;17.60;;;0.90;70.60;;;;;;4994788;28;20225;-90
2022/03/04 07:14:33;;;;;;;24.20;17.53;;;0.90;69.50;;;;;;5016305;28;20254;-90
2022/03/04 07:16:59;;;;;;;22.27;17.63;;;0.90;69.90;;;;;;5021752;28;20189;-90
2022/03/04 07:19:25;;;;;;;23.07;17.83;;;0.90;69.90;;;;;;5021260;28;20239;-90
2022/03/04 07:21:50;;;;;;;23.10;17.50;;;0.90;70.10;;;;;;5010330;28;20208;-90
2022/03/04 07:24:16;;;;;;;24.47;18.57;;;1.00;70.40;;;;;;5017236;28;20193;-90
2022/03/04 07:26:42;;;;;;;25.77;18.17;;;1.00;70.30;;;;;;5021817;28;20202;-90
2022/03/04 07:29:08;;;;;;;21.53;18.30;;;1.00;70.20;;;;;;5006875;28;20213;-91
2022/03/04 07:31:34;;;;;;;22.40;18.60;;;1.10;69.80;;;;;;5021186;28;20224;-91
2022/03/04 07:34:00;;;;;;;26.47;20.93;;;1.10;69.50;;;;;;5002902;28;20209;-91
2022/03/04 07:36:25;;;;;;;25.07;20.57;;;1.20;69.80;;;;;;5002680;28;20224;-91
2022/03/04 07:38:55;;;;;;;23.80;18.23;;;1.20;69.80;;;;;;5026159;28;20209;-91
2022/03/04 07:41:21;;;;;;;28.83;19.00;;;1.30;69.20;;;;;;4989010;28;20193;-91
2022/03/04 07:43:47;;;;;;;20.87;16.73;;;1.30;69.00;;;;;;4997204;28;20229;-91
2022/03/04 07:46:12;;;;;;;25.30;18.40;;;1.30;68.80;;;;;;5005984;28;20645;-92
2022/03/04 07:48:38;;;;;;;22.27;17.60;;;1.30;68.40;;;;;;5022313;28;20237;-92
2022/03/04 07:51:05;;;;;;;22.13;18.00;;;1.40;68.40;;;;;;4999490;28;20221;-92
2022/03/04 07:53:31;;;;;;;23.97;17.70;;;1.50;68.20;;;;;;4988820;28;20260;-91
2022/03/04 07:55:57;;;;;;;23.87;19.20;;;1.50;67.80;;;;;;5010570;28;20309;-92
2022/03/04 07:58:23;;;;;;;25.03;18.23;;;1.60;67.80;;;;;;4992990;28;20240;-92
2022/03/04 08:00:49;;;;;;;27.63;20.67;;;1.70;68.00;;;;;;5010110;28;20181;-91
2022/03/04 08:03:15;;;;;;;29.37;19.37;;;1.80;67.30;;;;;;5021915;28;20220;-92
2022/03/04 08:05:41;;;;;;;21.87;17.77;;;1.90;66.90;;;;;;5013407;28;20201;-91
2022/03/04 08:08:06;;;;;;;25.43;19.67;;;2.00;66.70;;;;;;5033348;28;20245;-92
2022/03/04 08:10:32;;;;;;;23.17;17.83;;;2.00;66.30;;;;;;5017318;28;20257;-91
2022/03/04 08:12:58;;;;;;;21.87;18.43;;;2.10;65.80;;;;;;5036964;28;20182;-91
2022/03/04 08:15:24;;;;;;;21.70;18.20;;;2.10;65.40;;;;;;5001763;28;20264;-91
2022/03/04 08:17:50;;;;;;;23.00;17.93;;;2.20;65.10;;;;;;4992244;28;20198;-91
2022/03/04 08:20:16;;;;;;;23.73;18.43;;;2.20;64.80;;;;;;5002698;28;20244;-92
2022/03/04 08:22:42;;;;;;;24.53;19.10;;;2.30;64.90;;;;;;5010011;28;20228;-92
2022/03/04 08:25:08;;;;;;;25.93;18.57;;;2.40;64.70;;;;;;5002562;28;20201;-92
2022/03/04 08:27:41;;;;;;;21.37;17.60;;;2.50;64.60;;;;;;5027051;28;20229;-91
2022/03/04 08:30:10;;;;;;;26.40;19.63;;;2.50;63.90;;;;;;5010058;28;20206;-91
2022/03/04 08:32:36;;;;;;;20.67;16.30;;;2.60;63.80;;;;;;5032549;28;20201;-91
2022/03/04 08:35:03;;;;;;;22.87;18.23;;;2.70;62.80;;;;;;5027594;28;20218;-92
2022/03/04 08:37:29;;;;;;;23.33;18.53;;;2.80;62.50;;;;;;5008129;28;20198;-92
2022/03/04 08:39:55;;;;;;;22.63;18.50;;;3.00;61.50;;;;;;5007079;28;20192;-91
2022/03/04 08:42:21;;;;;;;23.53;18.70;;;3.00;59.90;;;;;;5015116;28;20190;-92
2022/03/04 08:44:47;;;;;;;22.87;17.87;;;3.10;60.40;;;;;;5015816;28;20706;-91
2022/03/04 08:47:13;;;;;;;24.33;17.43;;;3.20;59.20;;;;;;5015733;28;20182;-91
2022/03/04 08:49:39;;;;;;;20.43;17.80;;;3.20;59.70;;;;;;4993448;28;20312;-92
2022/03/04 08:52:06;;;;;;;24.30;19.77;;;3.30;59.30;;;;;;5027169;28;20214;-91
2022/03/04 08:54:32;;;;;;;27.43;19.90;;;3.40;58.20;;;;;;5028396;28;20229;-91
2022/03/04 08:56:57;;;;;;;21.93;18.67;;;3.50;58.20;;;;;;5027851;28;20297;-91
2022/03/04 08:59:23;;;;;;;24.10;18.90;;;3.60;58.70;;;;;;5025886;28;20229;-91
2022/03/04 09:01:49;;;;;;;22.67;18.57;;;3.60;57.90;;;;;;5020365;28;20194;-92
2022/03/04 09:04:17;;;;;;;27.03;18.83;;;3.70;57.60;;;;;;5008736;28;20197;-91
2022/03/04 09:06:44;;;;;;;22.37;17.90;;;3.70;57.80;;;;;;4991613;28;20239;-92
2022/03/04 09:09:09;;;;;;;22.60;18.57;;;3.80;57.10;;;;;;4993691;28;20232;-91
2022/03/04 09:11:35;;;;;;;22.97;18.67;;;3.90;56.80;;;;;;4995246;28;20221;-91
2022/03/04 09:14:02;;;;;;;19.73;16.53;;;4.00;55.50;;;;;;4991375;28;20186;-91
2022/03/04 09:16:29;;;;;;;21.57;18.17;;;4.10;55.10;;;;;;5026964;28;20205;-92
2022/03/04 09:18:55;;;;;;;24.37;18.93;;;4.20;55.30;;;;;;5025316;28;20224;-91
2022/03/04 09:21:21;;;;;;;24.17;18.50;;;4.40;54.70;;;;;;5009368;28;20197;-92
2022/03/04 09:23:47;;;;;;;25.13;19.60;;;4.50;54.10;;;;;;4993345;28;20201;-91
2022/03/04 09:26:13;;;;;;;22.43;17.87;;;4.70;53.50;;;;;;4980408;28;20193;-92
2022/03/04 09:28:40;;;;;;;33.37;20.03;;;4.70;53.10;;;;;;5028539;28;20206;-92
2022/03/04 09:31:06;;;;;;;28.07;20.13;;;4.80;53.30;;;;;;5006489;28;20218;-91
2022/03/04 09:33:31;;;;;;;29.00;20.47;;;5.00;52.80;;;;;;5010726;28;20189;-91
2022/03/04 09:35:57;;;;;;;25.07;18.47;;;5.10;51.80;;;;;;4993205;28;20207;-91
2022/03/04 09:38:24;;;;;;;23.90;17.73;;;5.20;51.40;;;;;;4995523;28;20205;-91
2022/03/04 09:40:50;;;;;;;21.97;18.67;;;5.20;50.60;;;;;;5010253;28;20202;-91
2022/03/04 09:43:18;;;;;;;25.27;18.67;;;5.40;50.90;;;;;;5018856;28;20197;-91
2022/03/04 09:45:49;;;;;;;24.13;19.43;;;5.50;50.10;;;;;;5016447;28;20198;-91
2022/03/04 09:48:15;;;;;;;24.87;18.67;;;5.50;50.20;;;;;;5015598;28;20215;-91
2022/03/04 09:50:46;;;;;;;25.93;19.93;;;5.70;49.70;;;;;;5023107;28;20220;-91
2022/03/04 09:53:13;;;;;;;26.63;19.57;;;5.90;49.50;;;;;;5009932;28;20545;-91
2022/03/04 09:55:40;;;;;;;23.47;19.60;;;6.20;49.20;;;;;;5025346;28;20236;-91
2022/03/04 09:58:10;;;;;;;25.23;18.93;;;6.30;48.60;;;;;;5009920;28;20228;-91
2022/03/04 10:00:37;;;;;;;23.70;19.57;;;6.30;48.10;;;;;;5026148;28;20330;-91
2022/03/04 10:03:04;;;;;;;25.10;19.80;;;6.40;47.60;;;;;;5031640;28;20204;-90
2022/03/04 10:05:30;;;;;;;22.07;19.67;;;6.50;47.50;;;;;;5042350;28;20213;-91
2022/03/04 10:07:56;;;;;;;24.67;21.07;;;6.70;46.80;;;;;;4996541;28;20194;-91
2022/03/04 10:10:22;;;;;;;24.83;21.10;;;6.90;46.20;;;;;;5021447;28;20206;-91
2022/03/04 10:12:55;;;;;;;23.63;20.23;;;7.00;45.60;;;;;;5026364;28;20185;-90
2022/03/04 10:15:21;;;;;;;23.23;20.60;;;7.00;45.20;;;;;;5009111;28;20178;-91
2022/03/04 10:17:59;;;;;;;28.07;21.10;;;7.20;45.60;;;;;;5026285;28;20216;-91
2022/03/04 10:20:40;;;;;;;24.33;20.47;;;7.30;44.30;;;;;;5026399;28;20182;-91
2022/03/04 10:23:11;;;;;;;23.03;20.40;;;7.50;43.60;;;;;;5026963;28;20173;-91
2022/03/04 10:25:37;;;;;;;23.40;20.77;;;7.70;43.10;;;;;;5018095;28;20667;-91
2022/03/04 10:28:10;;;;;;;29.40;21.23;;;7.70;43.00;;;;;;5007916;28;20218;-91
2022/03/04 10:30:36;;;;;;;23.40;20.27;;;7.80;42.70;;;;;;5014589;28;20233;-91
2022/03/04 10:33:09;;;;;;;22.33;19.90;;;7.90;42.60;;;;;;5025593;28;20192;-91
2022/03/04 10:35:36;;;;;;;23.40;20.57;;;8.10;42.00;;;;;;5007258;28;20673;-90
2022/03/04 10:38:04;;;;;;;26.07;20.27;;;8.20;41.90;;;;;;5025425;28;20209;-91
2022/03/04 10:40:36;;;;;;;23.07;19.80;;;8.10;41.40;;;;;;5029048;28;20209;-91
2022/03/04 10:43:06;;;;;;;26.00;20.27;;;8.30;40.60;;;;;;5028863;28;20165;-91
2022/03/04 10:45:36;;;;;;;22.77;20.07;;;8.40;40.90;;;;;;4998578;28;20207;-91
2022/03/04 10:48:19;;;;;;;26.57;20.73;;;8.50;40.40;;;;;;5019036;28;20852;-91
2022/03/04 10:51:05;;;;;;;24.70;21.50;;;8.60;40.90;;;;;;5022736;28;20240;-91
2022/03/04 10:53:33;;;;;;;22.80;19.87;;;8.80;39.70;;;;;;4990310;28;20212;-91
2022/03/04 10:56:02;;;;;;;23.90;21.30;;;8.80;39.30;;;;;;5023377;28;20320;-91
2022/03/04 10:58:33;;;;;;;28.93;21.43;;;9.00;39.40;;;;;;5024111;28;20216;-91
2022/03/04 11:01:12;;;;;;;25.00;20.40;;;8.90;39.80;;;;;;5007015;28;20540;-91
2022/03/04 11:03:40;;;;;;;25.67;20.90;;;9.10;39.10;;;;;;5005593;28;20198;-91
2022/03/04 11:06:07;;;;;;;24.27;20.87;;;9.00;38.80;;;;;;5022238;28;20184;-91
2022/03/04 11:08:34;;;;;;;24.97;21.10;;;9.20;38.80;;;;;;5029889;28;20688;-91
2022/03/04 11:11:02;;;;;;;26.00;21.17;;;9.50;38.20;;;;;;5021947;28;20213;-91
2022/03/04 11:13:33;;;;;;;24.50;21.63;;;9.70;37.80;;;;;;5012068;28;20201;-91
2022/03/04 11:16:00;;;;;;;26.43;20.97;;;9.80;37.60;;;;;;5006802;28;20174;-91
2022/03/04 11:18:26;;;;;;;24.17;20.80;;;9.60;37.90;;;;;;5005795;28;20202;-92
2022/03/04 11:20:55;;;;;;;23.47;19.37;;;9.70;37.70;;;;;;5007322;28;20198;-91
2022/03/04 11:23:27;;;;;;;21.60;18.73;;;9.70;35.90;;;;;;5023524;28;20181;-92
2022/03/04 11:25:58;;;;;;;23.33;19.17;;;9.70;35.90;;;;;;5007913;28;20190;-91
2022/03/04 11:28:48;;;;;;;22.60;19.97;;;9.90;36.00;;;;;;5011356;28;20205;-91
2022/03/04 11:31:20;;;;;;;24.63;19.70;;;10.40;35.70;;;;;;5024517;28;20217;-91
2022/03/04 11:34:02;;;;;;;38.33;21.80;;;10.60;35.00;;;;;;5009538;28;20182;-92
2022/03/04 11:36:30;;;;;;;21.87;19.63;;;10.70;35.40;;;;;;5007799;28;20190;-91
2022/03/04 11:38:59;;;;;;;23.40;20.00;;;10.70;34.20;;;;;;4988842;28;20210;-91
2022/03/04 11:41:25;;;;;;;23.03;20.63;;;10.90;34.30;;;;;;5002813;28;20217;-91
2022/03/04 11:43:56;;;;;;;21.03;18.83;;;11.00;33.90;;;;;;5011320;28;20181;-91
2022/03/04 11:46:28;;;;;;;21.37;19.20;;;11.20;33.10;;;;;;5025219;28;20580;-91
2022/03/04 11:49:21;;;;;;;21.87;19.67;;;11.30;32.90;;;;;;5009718;28;20260;-92
2022/03/04 11:52:15;;;;;;;22.73;20.33;;;11.30;32.60;;;;;;5011783;28;20197;-92
2022/03/04 11:54:44;;;;;;;22.07;19.70;;;11.40;32.40;;;;;;5005945;28;20185;-92
2022/03/04 11:57:22;;;;;;;21.93;19.73;;;11.40;33.00;;;;;;5006712;28;20267;-92
2022/03/04 11:59:55;;;;;;;22.57;20.27;;;11.40;33.00;;;;;;5025942;28;20197;-92
2022/03/04 12:02:25;;;;;;;22.67;20.33;;;11.30;32.70;;;;;;5005834;28;20200;-91
2022/03/04 12:05:14;;;;;;;21.90;19.60;;;11.50;32.60;;;;;;5024501;28;20247;-91
2022/03/04 12:07:42;;;;;;;22.80;19.27;;;11.60;32.40;;;;;;5007423;28;20185;-92
2022/03/04 12:10:09;;;;;;;21.63;19.30;;;11.80;32.40;;;;;;5006119;28;20196;-91
2022/03/04 12:12:35;;;;;;;20.57;18.37;;;11.90;31.00;;;;;;5007470;28;20212;-90
2022/03/04 12:15:16;;;;;;;22.70;20.23;;;11.90;31.60;;;;;;4990372;28;20201;-90
2022/03/04 12:17:51;;;;;;;23.50;20.00;;;11.90;32.00;;;;;;5042195;28;20243;-90
2022/03/04 12:20:28;;;;;;;21.90;19.27;;;12.30;31.80;;;;;;5027074;28;20180;-90
2022/03/04 12:22:58;;;;;;;22.97;20.13;;;12.20;31.60;;;;;;5018046;28;20181;-90
2022/03/04 12:25:53;;;;;;;21.40;19.30;;;12.40;31.00;;;;;;5041210;28;20273;-90
2022/03/04 12:28:20;;;;;;;22.33;20.13;;;12.70;30.90;;;;;;5023065;28;20207;-90
2022/03/04 12:31:13;;;;;;;21.20;18.90;;;12.60;29.80;;;;;;4992530;28;20215;-90
2022/03/04 12:33:44;;;;;;;27.33;19.87;;;12.90;30.20;;;;;;5010028;28;20206;-90
2022/03/04 12:36:16;;;;;;;21.60;19.33;;;13.10;30.20;;;;;;5031987;28;20224;-90
2022/03/04 12:38:46;;;;;;;21.53;19.33;;;13.40;29.10;;;;;;5015711;28;20207;-90